createdAt,value
2024-04-09T00:00:02.133Z,37.23
2024-04-09T00:01:03.082Z,37.33
2024-04-09T00:02:03.572Z,37.63
2024-04-09T00:03:04.315Z,38.83
2024-04-09T00:04:04.983Z,38.73
2024-04-09T00:05:05.686Z,39.13
2024-04-09T00:06:06.346Z,39.33
2024-04-09T00:07:07.173Z,39.63
2024-04-09T00:08:08.214Z,40.53
2024-04-09T00:09:08.562Z,41.15
2024-04-09T00:10:09.378Z,41.55
2024-04-09T00:11:10.245Z,41.85
2024-04-09T00:12:10.976Z,42.66
2024-04-09T00:13:11.617Z,43.26
2024-04-09T00:14:12.345Z,43.16
2024-04-09T00:15:13.211Z,43.76
2024-04-09T00:16:13.898Z,43.77
2024-04-09T00:17:14.641Z,43.77
2024-04-09T00:18:15.402Z,44.38
2024-04-09T00:19:16.261Z,44.68
2024-04-09T00:20:16.943Z,45.10
2024-04-09T00:21:17.648Z,45.40
2024-04-09T00:22:18.363Z,46.20
2024-04-09T00:23:19.201Z,45.60
2024-04-09T00:24:20.002Z,46.30
2024-04-09T00:25:20.609Z,45.80
2024-04-09T00:26:21.302Z,46.53
2024-04-09T00:27:22.023Z,46.12
2024-04-09T00:28:22.714Z,46.23
2024-04-09T00:29:23.655Z,45.42
2024-04-09T00:30:24.355Z,46.83
2024-04-09T00:31:26.305Z,46.93
2024-04-09T00:32:25.674Z,45.83
2024-04-09T00:33:26.448Z,45.62
2024-04-09T00:34:27.179Z,45.72
2024-04-09T00:35:27.756Z,45.04
2024-04-09T00:36:28.507Z,45.95
2024-04-09T00:37:29.284Z,45.65
2024-04-09T00:38:30.217Z,45.34
2024-04-09T00:39:30.605Z,44.95
2024-04-09T00:40:31.230Z,45.34
2024-04-09T00:41:31.915Z,45.45
2024-04-09T00:42:32.671Z,45.45
2024-04-09T00:43:33.522Z,45.84
2024-04-09T00:44:34.316Z,45.95
2024-04-09T00:45:35.148Z,46.55
2024-04-09T00:46:36.199Z,47.25
2024-04-09T00:47:36.606Z,46.75
2024-04-09T00:48:37.334Z,47.25
2024-04-09T00:49:38.161Z,47.15
2024-04-09T00:50:38.836Z,47.05
2024-04-09T00:51:39.698Z,46.45
2024-04-09T00:52:40.369Z,46.35
2024-04-09T00:53:41.170Z,46.85
2024-04-09T00:54:41.898Z,46.85
2024-04-09T00:55:42.616Z,46.75
2024-04-09T00:56:43.442Z,46.77
2024-04-09T00:57:44.256Z,47.15
2024-04-09T00:58:45.119Z,47.38
2024-04-09T00:59:45.919Z,47.58
2024-04-09T01:00:46.693Z,47.77
2024-04-09T01:01:47.398Z,46.27
2024-04-09T01:02:48.309Z,46.37
2024-04-09T01:03:49.090Z,45.57
2024-04-09T01:04:49.870Z,45.26
2024-04-09T01:05:50.451Z,45.87
2024-04-09T01:06:51.315Z,44.96
2024-04-09T01:07:52.015Z,44.54
2024-04-09T01:08:52.872Z,45.57
2024-04-09T01:09:53.757Z,44.44
2024-04-09T01:10:54.636Z,42.13
2024-04-09T01:11:55.349Z,42.44
2024-04-09T01:12:56.148Z,42.13
2024-04-09T01:13:56.825Z,42.03
2024-04-09T01:14:57.550Z,41.83
2024-04-09T01:15:58.252Z,43.44
2024-04-09T01:16:58.957Z,43.62
2024-04-09T01:17:59.788Z,44.14
2024-04-09T01:19:00.447Z,44.44
2024-04-09T01:20:01.074Z,45.45
2024-04-09T01:21:01.862Z,45.04
2024-04-09T01:22:02.481Z,45.84
2024-04-09T01:23:03.422Z,45.25
2024-04-09T01:24:04.235Z,45.34
2024-04-09T01:25:04.907Z,45.95
2024-04-09T01:26:05.638Z,45.95
2024-04-09T01:27:06.612Z,46.04
2024-04-09T01:28:07.178Z,46.25
2024-04-09T01:29:07.872Z,46.75
2024-04-09T01:30:08.596Z,47.15
2024-04-09T01:31:09.268Z,48.05
2024-04-09T01:32:09.955Z,47.96
2024-04-09T01:33:10.873Z,48.28
2024-04-09T01:34:11.409Z,48.38
2024-04-09T01:35:11.939Z,48.68
2024-04-09T01:36:12.621Z,49.28
2024-04-09T01:37:13.324Z,49.48
2024-04-09T01:38:14.060Z,49.38
2024-04-09T01:39:14.850Z,49.88
2024-04-09T01:40:15.539Z,49.98
2024-04-09T01:41:16.210Z,50.18
2024-04-09T01:42:17.033Z,50.29
2024-04-09T01:43:17.827Z,50.48
2024-04-09T01:44:18.517Z,50.59
2024-04-09T01:45:19.273Z,51.01
2024-04-09T01:46:19.994Z,51.42
2024-04-09T01:47:20.846Z,51.42
2024-04-09T01:48:21.521Z,51.61
2024-04-09T01:49:22.202Z,51.51
2024-04-09T01:50:23.003Z,51.51
2024-04-09T01:51:23.777Z,51.81
2024-04-09T01:52:24.401Z,52.34
2024-04-09T01:53:25.103Z,52.64
2024-04-09T01:54:25.857Z,52.14
2024-04-09T01:55:26.516Z,52.24
2024-04-09T01:56:27.218Z,51.84
2024-04-09T01:57:28.368Z,52.24
2024-04-09T01:58:28.802Z,53.05
2024-04-09T01:59:29.640Z,52.94
2024-04-09T02:00:30.375Z,53.25
2024-04-09T02:01:31.119Z,52.64
2024-04-09T02:02:31.828Z,52.84
2024-04-09T02:03:32.669Z,52.87
2024-04-09T02:04:33.582Z,53.17
2024-04-09T02:05:34.217Z,53.17
2024-04-09T02:06:35.105Z,53.77
2024-04-09T02:07:35.843Z,53.88
2024-04-09T02:08:36.655Z,53.77
2024-04-09T02:09:37.457Z,53.57
2024-04-09T02:10:38.121Z,53.77
2024-04-09T02:11:38.926Z,53.97
2024-04-09T02:12:39.649Z,53.97
2024-04-09T02:13:40.497Z,54.28
2024-04-09T02:14:41.271Z,53.47
2024-04-09T02:15:43.197Z,53.88
2024-04-09T02:16:42.858Z,54.48
2024-04-09T02:17:44.820Z,54.08
2024-04-09T02:18:44.317Z,53.88
2024-04-09T02:19:45.128Z,54.38
2024-04-09T02:20:45.867Z,54.30
2024-04-09T02:21:46.726Z,54.50
2024-04-09T02:22:47.375Z,54.80
2024-04-09T02:23:48.112Z,54.80
2024-04-09T02:24:49.006Z,55.31
2024-04-09T02:25:49.631Z,54.91
2024-04-09T02:26:50.350Z,54.71
2024-04-09T02:27:51.048Z,54.40
2024-04-09T02:28:51.968Z,54.80
2024-04-09T02:29:52.798Z,55.11
2024-04-09T02:30:53.684Z,55.00
2024-04-09T02:31:54.394Z,54.40
2024-04-09T02:32:55.083Z,54.60
2024-04-09T02:33:55.805Z,54.80
2024-04-09T02:34:56.507Z,55.21
2024-04-09T02:35:57.366Z,55.00
2024-04-09T02:36:58.133Z,55.11
2024-04-09T02:37:58.817Z,55.31
2024-04-09T02:38:59.689Z,55.41
2024-04-09T02:40:00.370Z,55.63
2024-04-09T02:41:01.140Z,56.14
2024-04-09T02:42:02.096Z,56.14
2024-04-09T02:43:02.757Z,55.54
2024-04-09T02:44:03.817Z,56.34
2024-04-09T02:45:04.493Z,55.74
2024-04-09T02:46:05.181Z,55.83
2024-04-09T02:47:06.087Z,55.94
2024-04-09T02:48:06.948Z,56.74
2024-04-09T02:49:07.778Z,56.74
2024-04-09T02:50:08.394Z,56.44
2024-04-09T02:51:09.240Z,57.04
2024-04-09T02:52:10.005Z,57.35
2024-04-09T02:53:10.818Z,58.45
2024-04-09T02:54:11.721Z,57.45
2024-04-09T02:55:12.503Z,57.65
2024-04-09T02:56:13.344Z,57.65
2024-04-09T02:57:14.258Z,57.45
2024-04-09T02:58:15.139Z,57.48
2024-04-09T02:59:15.834Z,57.28
2024-04-09T03:00:16.683Z,57.48
2024-04-09T03:01:17.373Z,57.48
2024-04-09T03:02:17.985Z,58.38
2024-04-09T03:03:18.749Z,58.88
2024-04-09T03:04:19.509Z,59.19
2024-04-09T03:05:20.103Z,58.38
2024-04-09T03:06:20.868Z,58.48
2024-04-09T03:07:21.530Z,57.98
2024-04-09T03:08:22.239Z,57.57
2024-04-09T03:09:22.812Z,57.88
2024-04-09T03:10:23.596Z,58.48
2024-04-09T03:11:24.326Z,58.38
2024-04-09T03:12:25.049Z,58.78
2024-04-09T03:13:25.753Z,59.59
2024-04-09T03:14:26.427Z,61.10
2024-04-09T03:15:27.155Z,61.30
2024-04-09T03:16:28.191Z,61.70
2024-04-09T03:17:28.542Z,61.50
2024-04-09T03:18:29.298Z,62.81
2024-04-09T03:19:30.120Z,61.80
2024-04-09T03:20:30.895Z,61.70
2024-04-09T03:21:31.821Z,61.50
2024-04-09T03:22:32.415Z,62.24
2024-04-09T03:23:33.199Z,62.54
2024-04-09T03:24:34.212Z,62.44
2024-04-09T03:25:34.768Z,61.83
2024-04-09T03:26:35.541Z,61.73
2024-04-09T03:27:36.373Z,64.05
2024-04-09T03:28:37.004Z,61.73
2024-04-09T03:29:37.698Z,61.93
2024-04-09T03:30:38.785Z,62.04
2024-04-09T03:31:39.391Z,63.95
2024-04-09T03:32:40.251Z,64.05
2024-04-09T03:33:41.009Z,62.37
2024-04-09T03:34:41.515Z,63.57
2024-04-09T03:35:42.284Z,63.27
2024-04-09T03:36:43.005Z,62.06
2024-04-09T03:37:43.708Z,63.07
2024-04-09T03:38:44.497Z,64.07
2024-04-09T03:39:45.267Z,64.18
2024-04-09T03:40:45.968Z,65.49
2024-04-09T03:41:47.576Z,65.69
2024-04-09T03:42:47.377Z,63.98
2024-04-09T03:43:48.076Z,64.38
2024-04-09T03:44:48.788Z,64.07
2024-04-09T03:45:49.628Z,64.58
2024-04-09T03:46:50.307Z,65.29
2024-04-09T03:47:51.057Z,65.39
2024-04-09T03:48:51.968Z,65.99
2024-04-09T03:49:52.452Z,66.90
2024-04-09T03:50:53.134Z,67.33
2024-04-09T03:51:53.831Z,66.73
2024-04-09T03:52:54.539Z,66.22
2024-04-09T03:53:55.251Z,66.83
2024-04-09T03:54:55.952Z,66.63
2024-04-09T03:55:56.801Z,66.13
2024-04-09T03:56:57.654Z,64.61
2024-04-09T03:57:58.255Z,65.82
2024-04-09T03:58:58.957Z,66.42
2024-04-09T03:59:59.761Z,67.13
2024-04-09T04:01:00.553Z,67.94
2024-04-09T04:02:01.228Z,67.33
2024-04-09T04:03:01.995Z,67.54
2024-04-09T04:04:02.746Z,67.33
2024-04-09T04:05:03.248Z,66.83
2024-04-09T04:06:04.179Z,67.23
2024-04-09T04:07:05.037Z,66.93
2024-04-09T04:08:05.731Z,65.62
2024-04-09T04:09:06.481Z,65.42
2024-04-09T04:10:10.117Z,64.61
2024-04-09T04:11:08.973Z,64.81
2024-04-09T04:12:08.627Z,64.31
2024-04-09T04:13:09.331Z,64.81
2024-04-09T04:14:10.017Z,65.62
2024-04-09T04:15:10.894Z,64.61
2024-04-09T04:16:11.745Z,65.82
2024-04-09T04:17:12.271Z,66.33
2024-04-09T04:18:13.410Z,65.22
2024-04-09T04:19:13.765Z,65.52
2024-04-09T04:20:14.480Z,66.63
2024-04-09T04:21:15.433Z,67.74
2024-04-09T04:22:16.009Z,67.43
2024-04-09T04:23:16.714Z,67.94
2024-04-09T04:24:17.434Z,68.44
2024-04-09T04:25:18.302Z,68.65
2024-04-09T04:26:19.067Z,68.34
2024-04-09T04:27:19.754Z,68.65
2024-04-09T04:28:20.324Z,68.34
2024-04-09T04:29:21.040Z,68.37
2024-04-09T04:30:21.660Z,67.87
2024-04-09T04:31:22.348Z,67.36
2024-04-09T04:32:23.019Z,67.87
2024-04-09T04:33:23.873Z,68.27
2024-04-09T04:34:24.527Z,67.67
2024-04-09T04:35:25.204Z,68.57
2024-04-09T04:36:26.052Z,67.47
2024-04-09T04:37:26.635Z,67.47
2024-04-09T04:38:27.232Z,67.36
2024-04-09T04:39:27.976Z,66.96
2024-04-09T04:40:28.403Z,67.57
2024-04-09T04:41:29.148Z,67.16
2024-04-09T04:42:29.866Z,66.36
2024-04-09T04:43:30.416Z,67.27
2024-04-09T04:44:32.603Z,67.57
2024-04-09T04:45:33.197Z,67.27
2024-04-09T04:46:32.912Z,66.05
2024-04-09T04:47:33.603Z,65.45
2024-04-09T04:48:34.398Z,65.75
2024-04-09T04:49:34.984Z,64.44
2024-04-09T04:50:35.793Z,64.75
2024-04-09T04:51:36.486Z,64.95
2024-04-09T04:52:37.064Z,64.24
2024-04-09T04:53:37.659Z,64.75
2024-04-09T04:54:38.353Z,64.84
2024-04-09T04:55:39.049Z,65.35
2024-04-09T04:56:39.771Z,65.75
2024-04-09T04:57:40.437Z,66.25
2024-04-09T04:58:40.947Z,65.45
2024-04-09T04:59:41.560Z,67.67
2024-04-09T05:00:42.318Z,67.57
2024-04-09T05:01:42.790Z,67.47
2024-04-09T05:02:43.448Z,67.57
2024-04-09T05:03:44.256Z,69.59
2024-04-09T05:04:44.880Z,68.27
2024-04-09T05:05:45.552Z,68.98
2024-04-09T05:06:46.187Z,70.19
2024-04-09T05:07:46.829Z,69.99
2024-04-09T05:08:47.435Z,70.39
2024-04-09T05:09:48.113Z,70.73
2024-04-09T05:10:48.640Z,71.53
2024-04-09T05:11:49.255Z,71.53
2024-04-09T05:12:50.112Z,68.21
2024-04-09T05:13:50.382Z,69.11
2024-04-09T05:14:51.188Z,72.95
2024-04-09T05:15:51.958Z,72.54
2024-04-09T05:16:52.454Z,73.65
2024-04-09T05:17:53.228Z,72.75
2024-04-09T05:18:53.956Z,73.96
2024-04-09T05:19:54.281Z,73.65
2024-04-09T05:20:55.078Z,73.75
2024-04-09T05:21:56.007Z,74.56
2024-04-09T05:22:56.818Z,74.09
2024-04-09T05:23:57.564Z,74.49
2024-04-09T05:24:58.209Z,75.71
2024-04-09T05:25:59.598Z,76.21
2024-04-09T05:27:01.648Z,76.01
2024-04-09T05:28:01.922Z,76.72
2024-04-09T05:29:02.712Z,76.55
2024-04-09T05:30:01.897Z,76.45
2024-04-09T05:31:02.416Z,76.25
2024-04-09T05:32:03.174Z,77.15
2024-04-09T05:33:04.125Z,76.25
2024-04-09T05:34:04.480Z,74.84
2024-04-09T05:35:04.999Z,75.74
2024-04-09T05:36:05.740Z,75.95
2024-04-09T05:37:06.495Z,75.84
2024-04-09T05:38:07.296Z,76.45
2024-04-09T05:39:08.053Z,75.13
2024-04-09T05:40:08.774Z,73.52
2024-04-09T05:41:09.408Z,74.73
2024-04-09T05:42:10.047Z,76.35
2024-04-09T05:43:10.565Z,76.45
2024-04-09T05:44:11.147Z,76.35
2024-04-09T05:45:11.869Z,77.36
2024-04-09T05:46:12.611Z,78.06
2024-04-09T05:47:14.424Z,78.47
2024-04-09T05:48:14.410Z,78.17
2024-04-09T05:49:15.271Z,78.37
2024-04-09T05:50:16.674Z,78.67
2024-04-09T05:51:16.778Z,78.17
2024-04-09T05:52:17.347Z,78.37
2024-04-09T05:53:17.935Z,76.55
2024-04-09T05:54:21.216Z,76.04
2024-04-09T05:55:20.913Z,76.25
2024-04-09T05:56:22.079Z,76.86
2024-04-09T05:57:21.593Z,77.26
2024-04-09T05:58:23.502Z,78.67
2024-04-09T05:59:24.055Z,78.37
2024-04-09T06:00:22.465Z,78.67
2024-04-09T06:01:23.040Z,78.06
2024-04-09T06:02:23.655Z,78.77
2024-04-09T06:03:24.432Z,79.28
2024-04-09T06:04:25.163Z,79.58
2024-04-09T06:05:25.433Z,78.97
2024-04-09T06:06:26.159Z,77.15
2024-04-09T06:07:26.700Z,78.57
2024-04-09T06:08:27.625Z,78.67
2024-04-09T06:09:28.537Z,79.28
2024-04-09T06:10:29.554Z,79.44
2024-04-09T06:11:31.279Z,79.85
2024-04-09T06:12:29.871Z,79.24
2024-04-09T06:13:30.449Z,77.93
2024-04-09T06:14:31.144Z,76.01
2024-04-09T06:15:31.876Z,75.31
2024-04-09T06:16:32.367Z,76.62
2024-04-09T06:17:32.986Z,77.93
2024-04-09T06:18:33.719Z,77.73
2024-04-09T06:19:34.634Z,78.33
2024-04-09T06:20:34.886Z,78.33
2024-04-09T06:21:35.578Z,78.70
2024-04-09T06:22:36.302Z,78.80
2024-04-09T06:23:36.902Z,78.19
2024-04-09T06:24:37.744Z,78.13
2024-04-09T06:25:38.250Z,77.53
2024-04-09T06:26:38.845Z,78.03
2024-04-09T06:27:39.639Z,77.93
2024-04-09T06:28:40.331Z,77.93
2024-04-09T06:29:41.148Z,78.03
2024-04-09T06:30:41.936Z,77.73
2024-04-09T06:31:42.431Z,77.62
2024-04-09T06:32:43.326Z,78.13
2024-04-09T06:33:44.677Z,77.62
2024-04-09T06:34:44.324Z,77.12
2024-04-09T06:35:44.846Z,77.42
2024-04-09T06:36:45.642Z,78.33
2024-04-09T06:37:46.173Z,77.93
2024-04-09T06:38:46.752Z,75.81
2024-04-09T06:39:47.371Z,76.82
2024-04-09T06:40:47.925Z,77.12
2024-04-09T06:41:48.573Z,74.69
2024-04-09T06:42:49.307Z,76.21
2024-04-09T06:43:49.852Z,77.53
2024-04-09T06:44:50.448Z,77.62
2024-04-09T06:45:51.174Z,77.42
2024-04-09T06:46:52.122Z,78.13
2024-04-09T06:47:53.019Z,77.53
2024-04-09T06:48:53.420Z,78.43
2024-04-09T06:49:53.878Z,78.74
2024-04-09T06:50:54.455Z,78.23
2024-04-09T06:51:55.137Z,77.62
2024-04-09T06:52:55.720Z,78.33
2024-04-09T06:53:56.439Z,77.86
2024-04-09T06:54:57.154Z,77.97
2024-04-09T06:55:57.768Z,78.37
2024-04-09T06:56:58.565Z,78.17
2024-04-09T06:57:59.059Z,77.56
2024-04-09T06:58:59.672Z,77.36
2024-04-09T07:00:00.554Z,75.24
2024-04-09T07:01:01.292Z,72.31
2024-04-09T07:02:02.096Z,72.51
2024-04-09T07:03:02.722Z,71.44
2024-04-09T07:04:03.363Z,71.13
2024-04-09T07:05:04.079Z,71.73
2024-04-09T07:06:04.714Z,69.11
2024-04-09T07:07:05.251Z,70.12
2024-04-09T07:08:07.639Z,67.32
2024-04-09T07:09:06.482Z,68.33
2024-04-09T07:10:07.269Z,67.25
2024-04-09T07:11:07.879Z,68.50
2024-04-09T07:12:08.594Z,70.62
2024-04-09T07:13:09.307Z,68.70
2024-04-09T07:14:09.903Z,67.52
2024-04-09T07:15:10.648Z,70.05
2024-04-09T07:16:11.384Z,67.93
2024-04-09T07:17:12.200Z,67.85
2024-04-09T07:18:12.835Z,69.07
2024-04-09T07:19:13.380Z,67.85
2024-04-09T07:20:14.072Z,67.05
2024-04-09T07:21:14.727Z,62.89
2024-04-09T07:22:15.276Z,65.05
2024-04-09T07:23:15.889Z,66.47
2024-04-09T07:24:16.631Z,67.38
2024-04-09T07:25:17.163Z,65.45
2024-04-09T07:26:17.840Z,66.80
2024-04-09T07:27:18.358Z,66.70
2024-04-09T07:28:18.905Z,68.02
2024-04-09T07:29:19.504Z,68.63
2024-04-09T07:30:20.088Z,67.41
2024-04-09T07:31:20.714Z,68.52
2024-04-09T07:32:21.286Z,68.93
2024-04-09T07:33:22.263Z,68.73
2024-04-09T07:34:22.780Z,68.12
2024-04-09T07:35:23.406Z,69.64
2024-04-09T07:36:24.130Z,68.23
2024-04-09T07:37:24.607Z,70.05
2024-04-09T07:38:25.184Z,70.86
2024-04-09T07:39:25.996Z,68.83
2024-04-09T07:40:26.700Z,71.06
2024-04-09T07:41:27.380Z,72.17
2024-04-09T07:42:28.059Z,68.93
2024-04-09T07:43:29.495Z,70.25
2024-04-09T07:44:29.172Z,72.48
2024-04-09T07:45:29.779Z,72.17
2024-04-09T07:46:30.515Z,67.11
2024-04-09T07:47:31.310Z,69.74
2024-04-09T07:48:31.936Z,72.48
2024-04-09T07:49:32.536Z,72.48
2024-04-09T07:50:33.022Z,72.92
2024-04-09T07:51:33.709Z,71.20
2024-04-09T07:52:34.237Z,70.05
2024-04-09T07:53:34.830Z,71.77
2024-04-09T07:54:35.429Z,73.60
2024-04-09T07:55:36.117Z,73.09
2024-04-09T07:56:36.716Z,72.08
2024-04-09T07:57:37.674Z,70.15
2024-04-09T07:58:37.995Z,72.17
2024-04-09T07:59:38.640Z,71.97
2024-04-09T08:00:39.401Z,71.97
2024-04-09T08:01:40.204Z,72.08
2024-04-09T08:02:40.857Z,70.56
2024-04-09T08:03:41.696Z,70.86
2024-04-09T08:04:42.232Z,69.34
2024-04-09T08:05:42.999Z,67.82
2024-04-09T08:06:43.627Z,67.31
2024-04-09T08:07:44.125Z,67.00
2024-04-09T08:08:47.364Z,68.46
2024-04-09T08:09:45.247Z,70.39
2024-04-09T08:10:45.758Z,71.40
2024-04-09T08:11:46.452Z,71.09
2024-04-09T08:12:47.100Z,66.83
2024-04-09T08:13:47.592Z,66.13
2024-04-09T08:14:48.187Z,69.27
2024-04-09T08:15:48.916Z,70.39
2024-04-09T08:16:49.485Z,72.61
2024-04-09T08:17:50.134Z,72.52
2024-04-09T08:18:50.969Z,72.61
2024-04-09T08:19:51.705Z,73.29
2024-04-09T08:20:52.251Z,73.29
2024-04-09T08:21:52.945Z,73.49
2024-04-09T08:22:53.792Z,73.02
2024-04-09T08:23:54.233Z,72.31
2024-04-09T08:24:54.852Z,72.92
2024-04-09T08:25:55.410Z,73.33
2024-04-09T08:26:56.050Z,72.31
2024-04-09T08:27:56.621Z,72.31
2024-04-09T08:28:57.391Z,73.29
2024-04-09T08:29:58.020Z,74.24
2024-04-09T08:30:58.591Z,74.95
2024-04-09T08:31:59.170Z,74.65
2024-04-09T08:32:59.896Z,73.63
2024-04-09T08:34:00.787Z,72.82
2024-04-09T08:35:01.007Z,71.50
2024-04-09T08:36:01.754Z,73.63
2024-04-09T08:37:02.236Z,75.56
2024-04-09T08:38:02.754Z,75.56
2024-04-09T08:39:03.494Z,74.54
2024-04-09T08:40:04.280Z,75.46
2024-04-09T08:41:04.676Z,71.91
2024-04-09T08:42:05.416Z,72.52
2024-04-09T08:43:05.892Z,73.63
2024-04-09T08:44:06.600Z,71.50
2024-04-09T08:45:07.107Z,73.53
2024-04-09T08:46:07.825Z,74.34
2024-04-09T08:47:08.268Z,73.12
2024-04-09T08:48:09.368Z,72.21
2024-04-09T08:49:09.818Z,73.43
2024-04-09T08:50:11.718Z,73.43
2024-04-09T08:51:11.482Z,73.73
2024-04-09T08:52:11.515Z,73.63
2024-04-09T08:53:12.046Z,73.53
2024-04-09T08:54:12.714Z,73.43
2024-04-09T08:55:13.298Z,72.82
2024-04-09T08:56:13.902Z,70.65
2024-04-09T08:57:14.635Z,71.50
2024-04-09T08:58:15.201Z,73.43
2024-04-09T08:59:15.779Z,71.40
2024-04-09T09:00:16.407Z,71.20
2024-04-09T09:01:17.288Z,72.41
2024-04-09T09:02:18.023Z,73.36
2024-04-09T09:03:19.037Z,71.64
2024-04-09T09:04:19.918Z,70.52
2024-04-09T09:05:20.489Z,70.52
2024-04-09T09:06:21.049Z,71.13
2024-04-09T09:07:21.579Z,71.33
2024-04-09T09:08:22.221Z,70.11
2024-04-09T09:09:22.852Z,70.21
2024-04-09T09:10:23.416Z,72.04
2024-04-09T09:11:24.041Z,70.52
2024-04-09T09:12:24.734Z,72.25
2024-04-09T09:13:25.270Z,70.11
2024-04-09T09:14:25.871Z,68.70
2024-04-09T09:15:26.827Z,70.42
2024-04-09T09:16:27.574Z,72.34
2024-04-09T09:17:28.063Z,70.21
2024-04-09T09:18:28.743Z,70.21
2024-04-09T09:19:29.474Z,70.21
2024-04-09T09:20:30.215Z,70.11
2024-04-09T09:21:31.049Z,68.90
2024-04-09T09:22:31.710Z,70.62
2024-04-09T09:23:32.326Z,71.94
2024-04-09T09:24:32.945Z,69.20
2024-04-09T09:25:33.545Z,69.60
2024-04-09T09:26:34.275Z,69.81
2024-04-09T09:27:35.056Z,71.03
2024-04-09T09:28:36.175Z,72.96
2024-04-09T09:29:36.392Z,73.87
2024-04-09T09:30:37.122Z,71.33
2024-04-09T09:31:37.693Z,70.62
2024-04-09T09:32:38.262Z,71.53
2024-04-09T09:33:38.891Z,70.62
2024-04-09T09:34:39.530Z,72.65
2024-04-09T09:35:40.123Z,70.11
2024-04-09T09:36:40.924Z,71.13
2024-04-09T09:37:41.594Z,71.23
2024-04-09T09:38:42.209Z,71.03
2024-04-09T09:39:43.124Z,70.62
2024-04-09T09:40:43.507Z,70.83
2024-04-09T09:41:44.234Z,71.94
2024-04-09T09:42:44.910Z,71.73
2024-04-09T09:43:45.681Z,70.39
2024-04-09T09:44:46.262Z,70.08
2024-04-09T09:45:46.921Z,69.27
2024-04-09T09:46:47.397Z,67.55
2024-04-09T09:47:48.207Z,67.34
2024-04-09T09:48:49.796Z,67.65
2024-04-09T09:49:54.486Z,68.35
2024-04-09T09:50:50.227Z,65.42
2024-04-09T09:51:50.643Z,66.13
2024-04-09T09:52:51.222Z,68.76
2024-04-09T09:53:51.799Z,64.81
2024-04-09T09:54:54.441Z,63.29
2024-04-09T09:55:53.361Z,61.56
2024-04-09T09:56:54.102Z,61.87
2024-04-09T09:57:54.725Z,63.29
2024-04-09T09:58:55.428Z,64.81
2024-04-09T09:59:56.075Z,64.30
2024-04-09T10:00:56.811Z,60.55
2024-04-09T10:01:57.388Z,64.10
2024-04-09T10:02:57.972Z,66.74
2024-04-09T10:03:58.748Z,64.40
2024-04-09T10:04:59.179Z,61.66
2024-04-09T10:05:59.685Z,65.92
2024-04-09T10:07:03.309Z,64.88
2024-04-09T10:08:01.095Z,61.53
2024-04-09T10:09:02.866Z,61.83
2024-04-09T10:10:02.407Z,60.82
2024-04-09T10:11:03.007Z,64.17
2024-04-09T10:12:03.855Z,60.82
2024-04-09T10:13:04.557Z,62.54
2024-04-09T10:14:05.156Z,62.95
2024-04-09T10:15:05.829Z,62.52
2024-04-09T10:16:06.574Z,63.53
2024-04-09T10:17:07.304Z,63.43
2024-04-09T10:18:08.102Z,61.00
2024-04-09T10:19:08.523Z,64.07
2024-04-09T10:20:09.065Z,61.33
2024-04-09T10:21:09.835Z,62.95
2024-04-09T10:22:10.389Z,64.47
2024-04-09T10:23:12.112Z,62.85
2024-04-09T10:24:11.632Z,66.30
2024-04-09T10:25:12.179Z,66.19
2024-04-09T10:26:12.902Z,62.24
2024-04-09T10:27:14.721Z,63.26
2024-04-09T10:28:14.362Z,61.23
2024-04-09T10:29:15.041Z,61.43
2024-04-09T10:30:15.735Z,62.34
2024-04-09T10:31:16.288Z,63.56
2024-04-09T10:32:16.862Z,63.06
2024-04-09T10:33:17.529Z,62.75
2024-04-09T10:34:18.762Z,62.04
2024-04-09T10:35:19.016Z,64.27
2024-04-09T10:36:19.750Z,63.35
2024-04-09T10:37:22.224Z,65.08
2024-04-09T10:38:21.988Z,65.08
2024-04-09T10:39:21.645Z,65.18
2024-04-09T10:40:22.454Z,63.79
2024-04-09T10:41:23.167Z,66.13
2024-04-09T10:42:24.006Z,66.94
2024-04-09T10:43:24.794Z,63.79
2024-04-09T10:44:25.514Z,61.36
2024-04-09T10:45:26.155Z,62.17
2024-04-09T10:46:26.816Z,60.42
2024-04-09T10:47:27.405Z,61.23
2024-04-09T10:48:28.031Z,62.04
2024-04-09T10:49:28.592Z,56.46
2024-04-09T10:50:29.149Z,58.69
2024-04-09T10:51:30.031Z,56.97
2024-04-09T10:52:30.611Z,55.85
2024-04-09T10:53:32.374Z,57.48
2024-04-09T10:54:32.061Z,55.35
2024-04-09T10:55:32.568Z,54.94
2024-04-09T10:56:33.140Z,55.15
2024-04-09T10:57:33.777Z,55.76
2024-04-09T10:58:34.558Z,55.45
2024-04-09T10:59:35.283Z,57.88
2024-04-09T11:00:36.890Z,56.16
2024-04-09T11:01:36.854Z,57.04
2024-04-09T11:02:37.479Z,56.54
2024-04-09T11:03:38.319Z,56.74
2024-04-09T11:04:38.948Z,57.86
2024-04-09T11:05:39.454Z,57.65
2024-04-09T11:06:40.077Z,52.48
2024-04-09T11:07:40.674Z,52.18
2024-04-09T11:08:41.258Z,52.08
2024-04-09T11:09:42.052Z,53.50
2024-04-09T11:10:42.821Z,51.17
2024-04-09T11:11:43.475Z,52.08
2024-04-09T11:12:43.987Z,52.99
2024-04-09T11:13:44.722Z,53.91
2024-04-09T11:14:45.111Z,54.61
2024-04-09T11:15:45.778Z,54.41
2024-04-09T11:16:46.738Z,56.54
2024-04-09T11:17:47.566Z,56.01
2024-04-09T11:18:48.100Z,54.79
2024-04-09T11:19:50.817Z,54.99
2024-04-09T11:20:49.223Z,53.37
2024-04-09T11:21:49.936Z,54.59
2024-04-09T11:22:50.411Z,54.28
2024-04-09T11:23:51.059Z,53.17
2024-04-09T11:24:51.699Z,51.45
2024-04-09T11:25:52.256Z,51.02
2024-04-09T11:26:52.970Z,53.05
2024-04-09T11:27:53.558Z,54.26
2024-04-09T11:28:54.160Z,52.41
2024-04-09T11:29:54.945Z,55.24
2024-04-09T11:30:55.948Z,54.21
2024-04-09T11:31:56.370Z,50.04
2024-04-09T11:32:57.397Z,52.06
2024-04-09T11:33:58.105Z,54.58
2024-04-09T11:34:58.598Z,51.63
2024-04-09T11:35:58.964Z,50.82
2024-04-09T11:36:59.632Z,51.71
2024-04-09T11:38:00.161Z,53.22
2024-04-09T11:39:01.214Z,49.79
2024-04-09T11:40:01.413Z,52.19
2024-04-09T11:41:01.954Z,51.68
2024-04-09T11:42:02.651Z,49.36
2024-04-09T11:43:03.195Z,48.65
2024-04-09T11:44:03.807Z,49.96
2024-04-09T11:45:04.632Z,47.14
2024-04-09T11:46:05.064Z,47.14
2024-04-09T11:47:05.811Z,50.09
2024-04-09T11:48:06.580Z,47.06
2024-04-09T11:49:07.039Z,46.96
2024-04-09T11:50:08.955Z,48.37
2024-04-09T11:51:09.565Z,47.77
2024-04-09T11:52:09.104Z,49.58
2024-04-09T11:53:10.589Z,50.09
2024-04-09T11:54:10.650Z,47.14
2024-04-09T11:55:11.716Z,46.03
2024-04-09T11:56:11.812Z,47.74
2024-04-09T11:57:12.581Z,46.53
2024-04-09T11:58:13.148Z,45.62
2024-04-09T11:59:13.977Z,44.11
2024-04-09T12:00:14.738Z,45.12
2024-04-09T12:01:15.233Z,45.22
2024-04-09T12:02:15.631Z,46.21
2024-04-09T12:03:16.491Z,44.70
2024-04-09T12:04:17.137Z,47.32
2024-04-09T12:05:18.026Z,46.41
2024-04-09T12:06:18.754Z,46.21
2024-04-09T12:07:19.364Z,47.90
2024-04-09T12:08:20.110Z,46.49
2024-04-09T12:09:20.736Z,43.57
2024-04-09T12:10:21.418Z,44.17
2024-04-09T12:11:22.670Z,45.90
2024-04-09T12:12:22.671Z,44.49
2024-04-09T12:13:23.265Z,44.29
2024-04-09T12:14:23.961Z,45.70
2024-04-09T12:15:24.625Z,47.42
2024-04-09T12:16:25.243Z,46.51
2024-04-09T12:17:25.910Z,46.81
2024-04-09T12:18:26.560Z,46.31
2024-04-09T12:19:27.162Z,44.59
2024-04-09T12:20:27.727Z,45.10
2024-04-09T12:21:28.676Z,46.01
2024-04-09T12:22:29.870Z,47.42
2024-04-09T12:23:29.864Z,44.79
2024-04-09T12:24:30.506Z,46.41
2024-04-09T12:25:31.035Z,45.81
2024-04-09T12:26:31.841Z,47.22
2024-04-09T12:27:32.446Z,46.21
2024-04-09T12:28:32.988Z,47.72
2024-04-09T12:29:33.615Z,46.19
2024-04-09T12:30:34.380Z,45.28
2024-04-09T12:31:35.161Z,43.46
2024-04-09T12:32:35.940Z,45.78
2024-04-09T12:33:36.547Z,45.38
2024-04-09T12:34:37.336Z,44.47
2024-04-09T12:35:37.896Z,44.98
2024-04-09T12:36:38.687Z,43.74
2024-04-09T12:37:39.200Z,44.65
2024-04-09T12:38:39.706Z,45.16
2024-04-09T12:39:40.879Z,45.16
2024-04-09T12:40:41.370Z,46.25
2024-04-09T12:41:41.960Z,44.73
2024-04-09T12:42:42.765Z,44.33
2024-04-09T12:43:43.200Z,44.02
2024-04-09T12:44:43.840Z,43.12
2024-04-09T12:45:44.450Z,42.82
2024-04-09T12:46:45.080Z,40.70
2024-04-09T12:47:45.878Z,40.60
2024-04-09T12:49:00.548Z,42.24
2024-04-09T12:49:47.230Z,40.32
2024-04-09T12:50:47.820Z,42.74
2024-04-09T12:51:48.850Z,41.53
2024-04-09T12:52:49.253Z,41.33
2024-04-09T12:53:49.931Z,40.32
2024-04-09T12:54:50.602Z,40.70
2024-04-09T12:55:51.124Z,42.11
2024-04-09T12:56:51.715Z,43.62
2024-04-09T12:57:52.655Z,42.52
2024-04-09T12:58:53.247Z,41.49
2024-04-09T13:00:06.749Z,43.20
2024-04-09T13:01:05.701Z,43.40